Etusivu
METAR-TAF:

METAR-TAF

Lentoasemat :

Victoria Harbour, Brittiläinen Kolumbia, Kanada

Leveyspiiri: 48-25N, Pituuspiiri: 123-20W, korkeus merenpinnasta: 5 m

Tämänhetkinen sää

Tämä raportti tehtiin 44 minuuttia sitten, kello 05.00 UTC
Tuuli 2 kn pohjoisesta/koillisesta
Lämpötila 5°C
Kosteus 87%
Ilmanpaine 1018 hPa
Näkyvyys: 24.1 km
Muutamia pilviä 24000 ft:n korkeudessa

METAR: CYWH 220500Z 02002KT 15SM FEW240 05/03 A3006 RMK CI1 LAST STFD OBS/NEXT 221400Z SLP182

Aika: 21:44 (05:44 UTC)

Sääennuste

Tämä raportti tehtiin 6 tuntia ja 6 minuuttia sitten, kello 23.38 UTC
Ennuste voimassa 22. päivästä klo 00 UTC - 22. päivään klo 05 UTC
Tuuli 5 kn etelästä/lounaasta
Näkyvyys: 10 km
Muutamia pilviä 24000 ft:n korkeudessa

TAF: CYWH 212338Z 2200/2205 20005KT P6SM FEW240 RMK NXT FCST WILL BE ISSUED AT 221515Z

Säähavainnot ja -ennusteet yli 4000 lentoasemalta (METAR- ja TAF-raportit).

Käytössä olevat sääasemat on merkitty karttaan keltaisilla ja punaisilla pisteillä.

Aseta hiiri pisteen päälle nähdäksesi sääaseman nimen.

Klikkaa sitten nähdäksesi säähavainnot ja -ennusteet.

Kartan vaihtaminen: klikkaa mustalla rastilla varustettuja vihreitä pisteitä, niin voit zoomata sisään; viivalla varustettua vihreää pistettä, niin voit zoomata ulos tai vihreitä nuolia, niin pääset viereisille kartoille.


METAR-TAF: